Martinsville, Ohio
Current Conditions -  °F | °C
As of 11:54 AM on Thursday 30 Oct 2014 (Local Time) from KILN Reporting Station
Overcast Overcast  
Wind Chill: 48°   Ceiling: 3600
Heat Index: 48°   Visibility: 10mi
Dew Point: 30°   Wind: 0mph
Humidity: 50%   Direction: NA
Pressure: 30.15"   Gusts: NA
Location:  39.32°N, 83.81°W
Report Text: KILN 301554Z AUTO 00000KT 10SM OVC036 09/M01 A3015 RMK AO2 SLP225 T00891011
Loading
Personal Weather Stations






























Interactive Weather Map
Tropical Storm Tracking
New forecast layout! Learn more

10-Day Weather Forecast

Advertisements
Track Severe Weather on mobile